ASN logo
 
Statuts: Information is only available from news, social media or unofficial sources
Date:samedi 30 juillet 2022
Heure:21:06
Type/Sous-type:Silhouette image of generic B738 model; specific model in this crash may look slightly different
Boeing 737-86N (WL)
Compagnie:Nok Air
Immatriculation: HS-DBR
Numéro de série: 43420/5031
Année de Fabrication: 2014-11-21 (7 years 8 months)
Moteurs: 2 CFMI CFM56-7B26
Equipage:victimes: 0 / à bord: 6
Passagers:victimes: 0 / à bord: 164
Total:victimes: 0 / à bord: 170
Dégats de l'appareil: Inconnu
Lieu de l'accident:Chiang Rai-Mae Fah Luang International Airport (CEI) (   Thaïlande)
Phase de vol: A l'atterrissage (LDG)
Nature:Transport de Passagers Nat.
Aéroport de départ:Bangkok-Don Muang International Airport (DMK/VTBD), Thaïlande
Aéroport de destination:Chiang Rai-Mae Fah Luang International Airport (CEI/VTCT), Thaïlande
Numéro de vol:DD108
Détails:
Nok Air flight 108, a Boeing 737-86N, suffered a runway excursion after landing on runway 03 at Chiang Rai, Thailand.
The aircraft veered off the left side of the runway while landing. The nose landing gear collapsed and the aircraft came to rest in grass.
At the time of the incident a thunderstorm was passing through the area.

Sources:
» nationthailand.com
» thaipbsworld.com

METAR Weather report:
14:00 UTC / 21:00 local time:
VTCT 301400Z 33006KT 5000 -TSRA FEW018CB SCT018 BKN030 OVC049 25/25 Q1008 TEMPO 2000 TSRA

15:00 UTC / 22:00 local time:
VTCT 301500Z 16006KT 140V200 8000 -TSRA FEW020CB SCT026 OVC048 23/23 Q1008 BECMG NSW


Photos

Add your photo of this accident or aircraft

Video, social media

Plan
Ce plan montre l'aéroport de départ ainsi que la supposée destination du vol. La ligne fixe reliant les deux aéroports n'est pas le plan de vol exact.
La distance entre Bangkok-Don Muang International Airport et Chiang Rai-Mae Fah Luang International Airport est de 672 km (420 miles).

Les informations ci-dessus ne représentent pas l'opinion de la 'Flight Safety Foundation' ou de 'Aviation Safety Network' sur les causes de l'accident. Ces informations prélimimaires sont basées sur les faits tel qu'ils sont connus à ce jour.
languages: languages

Share

GAPPRE
GAPPRE
Global Action Plan for the Prevention of Runway Excursions (GAPPRE): recommendations and guidance material to prevent runway excursions

The Aviation Safety Network is an exclusive service provided by:
Quick Links:

CONNECT WITH US: FSF Facebook FSF Twitter FSF Youtube FSF LinkedIn FSF Instagram

©2022 Flight Safety Foundation

701 N. Fairfax St., Ste. 250
Alexandria, Virginia 22314
www.FlightSafety.org